createdAt,value
2022-09-26T00:05:08.732Z,20.80
2022-09-26T00:10:11.762Z,20.47
2022-09-26T00:15:14.403Z,20.37
2022-09-26T00:20:17.748Z,21.47
2022-09-26T00:25:20.369Z,20.80
2022-09-26T00:30:23.095Z,16.67
2022-09-26T00:35:28.046Z,16.77
2022-09-26T00:40:31.258Z,15.97
2022-09-26T00:45:34.147Z,15.53
2022-09-26T00:50:41.633Z,13.23
2022-09-26T00:56:08.865Z,12.27
2022-09-26T01:01:30.607Z,10.33
2022-09-26T01:06:59.845Z,8.23
2022-09-26T01:12:27.715Z,9.47
2022-09-26T01:17:38.958Z,9.33
2022-09-26T01:23:02.745Z,10.43
2022-09-26T01:28:28.204Z,11.97
2022-09-26T01:33:59.064Z,12.67
2022-09-26T01:39:17.565Z,11.27
2022-09-26T01:44:49.719Z,5.83
2022-09-26T01:49:58.871Z,5.30
2022-09-26T01:55:20.384Z,5.93
2022-09-26T02:00:27.222Z,6.10
2022-09-26T02:06:15.273Z,6.10
2022-09-26T02:11:25.298Z,6.40
2022-09-26T02:17:08.536Z,6.50
2022-09-26T02:22:24.391Z,7.03
2022-09-26T02:27:49.324Z,7.40
2022-09-26T02:33:10.044Z,7.13
2022-09-26T02:38:21.426Z,6.97
2022-09-26T02:44:23.510Z,7.03
2022-09-26T02:49:39.734Z,7.13
2022-09-26T02:54:53.923Z,6.83
2022-09-26T03:00:18.034Z,8.20
2022-09-26T03:05:41.315Z,8.00
2022-09-26T03:10:55.781Z,8.10
2022-09-26T03:16:33.912Z,8.50
2022-09-26T03:21:42.853Z,9.10
2022-09-26T03:27:00.003Z,9.17
2022-09-26T03:32:15.698Z,9.70
2022-09-26T03:37:36.245Z,10.93
2022-09-26T03:42:56.923Z,9.47
2022-09-26T03:48:05.353Z,11.87
2022-09-26T03:53:20.275Z,11.13
2022-09-26T03:58:52.596Z,13.07
2022-09-26T04:04:26.130Z,13.47
2022-09-26T04:09:39.206Z,12.97
2022-09-26T04:14:48.090Z,12.73
2022-09-26T04:19:51.498Z,14.07
2022-09-26T04:24:54.687Z,14.73
2022-09-26T04:30:07.658Z,14.50
2022-09-26T04:35:17.103Z,15.83
2022-09-26T04:40:19.865Z,17.50
2022-09-26T04:45:43.535Z,15.53
2022-09-26T04:50:58.988Z,16.13
2022-09-26T04:56:23.672Z,17.53
2022-09-26T05:01:45.230Z,17.53
2022-09-26T05:07:07.495Z,18.37
2022-09-26T05:12:24.813Z,17.93
2022-09-26T05:18:02.652Z,17.73
2022-09-26T05:23:13.700Z,17.70
2022-09-26T05:28:37.186Z,18.07
2022-09-26T05:33:55.559Z,17.47
2022-09-26T05:39:04.381Z,17.10
2022-09-26T05:44:15.859Z,17.13
2022-09-26T05:49:22.317Z,17.20
2022-09-26T05:54:25.387Z,16.73
2022-09-26T05:59:30.465Z,15.97
2022-09-26T06:05:03.139Z,15.90
2022-09-26T06:10:27.186Z,18.03
2022-09-26T06:15:36.282Z,16.03
2022-09-26T06:20:39.050Z,16.20
2022-09-26T06:25:42.477Z,15.80
2022-09-26T06:30:45.582Z,15.93
2022-09-26T06:36:28.245Z,15.60
2022-09-26T06:41:49.306Z,16.30
2022-09-26T06:47:26.310Z,16.53
2022-09-26T06:52:56.201Z,15.43
2022-09-26T06:58:04.448Z,15.17
2022-09-26T07:03:45.960Z,14.63
2022-09-26T07:09:32.676Z,12.33
2022-09-26T07:15:01.254Z,12.10
2022-09-26T07:20:09.309Z,12.27
2022-09-26T07:25:32.017Z,10.60
2022-09-26T07:30:37.105Z,9.83
2022-09-26T07:36:01.901Z,9.40
2022-09-26T07:41:33.998Z,8.50
2022-09-26T07:47:33.670Z,6.60
2022-09-26T07:52:56.094Z,6.93
2022-09-26T07:58:14.817Z,6.23
2022-09-26T08:04:06.999Z,4.70
2022-09-26T08:09:16.996Z,4.87
2022-09-26T08:14:39.890Z,4.70
2022-09-26T08:19:59.567Z,4.80
2022-09-26T08:25:03.314Z,4.20
2022-09-26T08:36:20.991Z,3.50
2022-09-26T08:42:08.997Z,3.20
2022-09-26T08:47:53.866Z,3.47
2022-09-26T08:53:39.566Z,3.40
2022-09-26T08:59:03.594Z,4.13
2022-09-26T09:05:02.341Z,4.20
2022-09-26T09:10:19.843Z,4.03
2022-09-26T09:16:21.953Z,3.83
2022-09-26T09:22:05.779Z,3.57
2022-09-26T09:28:08.072Z,3.30
2022-09-26T09:33:31.180Z,3.00
2022-09-26T09:39:05.145Z,2.60
2022-09-26T09:44:36.904Z,2.90
2022-09-26T09:49:39.617Z,2.13
2022-09-26T09:55:17.571Z,1.60
2022-09-26T10:00:28.304Z,2.20
2022-09-26T10:06:03.783Z,2.20
2022-09-26T10:11:34.181Z,2.00
2022-09-26T10:17:30.548Z,2.07
2022-09-26T10:23:06.233Z,1.97
2022-09-26T10:28:39.086Z,1.83
2022-09-26T10:34:06.173Z,2.23
2022-09-26T10:39:35.583Z,2.00
2022-09-26T10:44:38.901Z,1.90
2022-09-26T10:50:04.733Z,1.93
2022-09-26T10:55:39.660Z,2.13
2022-09-26T11:00:50.465Z,2.03
2022-09-26T11:06:11.966Z,1.80
2022-09-26T11:11:26.110Z,1.77
2022-09-26T11:17:07.313Z,1.80
2022-09-26T11:22:53.351Z,1.57
2022-09-26T11:28:36.609Z,1.50
2022-09-26T11:34:21.356Z,1.70
2022-09-26T11:39:42.825Z,1.70
2022-09-26T11:45:17.588Z,1.50
2022-09-26T11:56:58.368Z,1.90
2022-09-26T12:02:41.585Z,1.83
2022-09-26T12:08:04.674Z,1.47
2022-09-26T12:13:50.287Z,1.50
2022-09-26T12:19:23.275Z,1.93
2022-09-26T12:24:55.874Z,1.73
2022-09-26T12:30:04.326Z,1.50
2022-09-26T12:35:22.050Z,1.50
2022-09-26T12:40:44.423Z,1.40
2022-09-26T12:46:43.893Z,1.40
2022-09-26T12:52:15.707Z,1.27
2022-09-26T12:57:51.864Z,1.83
2022-09-26T13:03:43.749Z,1.40
2022-09-26T13:09:41.985Z,1.50
2022-09-26T13:15:08.488Z,1.70
2022-09-26T13:20:31.601Z,1.20
2022-09-26T13:25:57.208Z,1.40
2022-09-26T13:32:02.510Z,1.40
2022-09-26T13:38:02.064Z,1.30
2022-09-26T13:43:24.200Z,1.57
2022-09-26T13:49:07.025Z,1.57
2022-09-26T13:54:46.242Z,1.67
2022-09-26T13:59:54.417Z,1.70
2022-09-26T14:05:19.554Z,1.40
2022-09-26T14:10:39.933Z,1.50
2022-09-26T14:16:27.016Z,1.60
2022-09-26T14:21:58.603Z,1.73
2022-09-26T14:27:40.886Z,1.60
2022-09-26T14:33:01.964Z,2.70
2022-09-26T14:38:25.689Z,1.63
2022-09-26T14:43:31.777Z,1.70
2022-09-26T14:48:44.068Z,1.50
2022-09-26T14:54:01.480Z,1.90
2022-09-26T14:59:39.601Z,1.60
2022-09-26T15:05:18.539Z,2.20
2022-09-26T15:10:34.402Z,1.60
2022-09-26T15:16:21.856Z,1.57
2022-09-26T15:22:09.131Z,1.70
2022-09-26T15:27:46.047Z,1.50
2022-09-26T15:33:23.336Z,1.90
2022-09-26T15:38:31.191Z,1.60
2022-09-26T15:44:03.315Z,1.90
2022-09-26T15:49:22.399Z,1.77
2022-09-26T15:54:33.098Z,2.97
2022-09-26T15:59:41.381Z,1.67
2022-09-26T16:05:13.842Z,1.80
2022-09-26T16:10:37.450Z,1.90
2022-09-26T16:15:55.534Z,2.00
2022-09-26T16:21:37.585Z,3.63
2022-09-26T16:27:06.476Z,2.10
2022-09-26T16:32:41.549Z,2.40
2022-09-26T16:38:32.480Z,3.07
2022-09-26T16:43:58.282Z,4.60
2022-09-26T16:49:29.985Z,2.90
2022-09-26T16:54:33.118Z,7.13
2022-09-26T16:59:35.786Z,3.90
2022-09-26T17:05:06.738Z,4.80
2022-09-26T17:10:14.894Z,2.60
2022-09-26T17:15:26.329Z,2.50
2022-09-26T17:20:29.455Z,3.50
2022-09-26T17:25:32.609Z,2.90
2022-09-26T17:30:35.720Z,2.67
2022-09-26T17:35:40.697Z,3.07
2022-09-26T17:40:50.709Z,3.00
2022-09-26T17:51:43.055Z,3.77
2022-09-26T17:57:04.156Z,3.30
2022-09-26T18:08:19.726Z,4.00
2022-09-26T18:13:44.334Z,4.57
2022-09-26T18:18:48.151Z,4.13
2022-09-26T18:24:09.218Z,5.10
2022-09-26T18:29:38.518Z,4.73
2022-09-26T18:34:43.149Z,5.20
2022-09-26T18:39:46.517Z,4.50
2022-09-26T18:45:12.496Z,4.50
2022-09-26T18:50:36.830Z,3.83
2022-09-26T18:56:09.572Z,4.10
2022-09-26T19:01:17.282Z,3.40
2022-09-26T19:06:55.632Z,2.97
2022-09-26T19:11:58.569Z,2.63
2022-09-26T19:17:07.232Z,2.90
2022-09-26T19:22:23.375Z,2.93
2022-09-26T19:28:01.773Z,2.73
2022-09-26T19:33:04.505Z,2.40
2022-09-26T19:38:37.365Z,2.87
2022-09-26T19:44:00.952Z,2.50
2022-09-26T19:49:21.779Z,2.53
2022-09-26T19:54:29.240Z,2.50
2022-09-26T19:59:36.436Z,2.33
2022-09-26T20:05:02.116Z,2.50
2022-09-26T20:10:21.071Z,2.40
2022-09-26T20:15:24.444Z,2.50
2022-09-26T20:20:27.871Z,2.30
2022-09-26T20:25:32.954Z,2.20
2022-09-26T20:31:03.782Z,2.17
2022-09-26T20:36:48.061Z,2.13
2022-09-26T20:42:19.652Z,1.70
2022-09-26T20:47:43.335Z,2.23
2022-09-26T20:53:03.039Z,2.17
2022-09-26T20:58:17.108Z,2.40
2022-09-26T21:03:35.919Z,2.13
2022-09-26T21:08:50.899Z,2.17
2022-09-26T21:14:11.660Z,2.20
2022-09-26T21:19:26.173Z,2.03
2022-09-26T21:24:41.287Z,1.63
2022-09-26T21:29:44.028Z,1.90
2022-09-26T21:35:01.664Z,1.60
2022-09-26T21:40:04.504Z,1.80
2022-09-26T21:45:10.464Z,1.50
2022-09-26T21:50:13.476Z,1.80
2022-09-26T21:55:29.869Z,1.50
2022-09-26T22:00:32.552Z,1.67
2022-09-26T22:11:20.032Z,2.10
2022-09-26T22:16:26.954Z,2.13
2022-09-26T22:22:05.873Z,2.40
2022-09-26T22:27:21.950Z,2.70
2022-09-26T22:32:38.347Z,2.80
2022-09-26T22:37:58.781Z,2.90
2022-09-26T22:43:13.070Z,2.93
2022-09-26T22:48:28.624Z,3.07
2022-09-26T22:53:49.816Z,2.80
2022-09-26T22:59:08.255Z,3.13
2022-09-26T23:04:59.719Z,3.40
2022-09-26T23:10:05.368Z,3.17
2022-09-26T23:15:09.538Z,2.83
2022-09-26T23:20:12.169Z,2.93
2022-09-26T23:25:14.802Z,2.60
2022-09-26T23:30:17.461Z,2.70
2022-09-26T23:35:20.211Z,2.47
2022-09-26T23:40:23.343Z,2.20
2022-09-26T23:45:28.604Z,2.20
2022-09-26T23:50:31.247Z,2.23
2022-09-26T23:55:34.486Z,2.33
